createdAt,value
2018-01-21T00:00:50.299Z,99313.27
2018-01-21T00:03:18.753Z,99328.34
2018-01-21T00:05:47.221Z,99352.28
2018-01-21T00:08:15.665Z,99354.25
2018-01-21T00:10:44.091Z,99356.38
2018-01-21T00:13:12.476Z,99328.70
2018-01-21T00:15:40.901Z,99349.66
2018-01-21T00:18:09.350Z,99354.17
2018-01-21T00:20:37.776Z,99353.14
2018-01-21T00:23:06.221Z,99354.38
2018-01-21T00:25:34.719Z,99351.58
2018-01-21T00:28:03.212Z,99363.47
2018-01-21T00:30:31.700Z,99360.18
2018-01-21T00:33:00.217Z,99374.51
2018-01-21T00:35:28.643Z,99374.39
2018-01-21T00:37:57.129Z,99352.73
2018-01-21T00:40:25.519Z,99360.78
2018-01-21T00:42:53.949Z,99368.11
2018-01-21T00:45:22.356Z,99367.33
2018-01-21T00:47:50.792Z,99369.06
2018-01-21T00:50:19.225Z,99378.23
2018-01-21T00:52:47.648Z,99380.27
2018-01-21T00:55:16.031Z,99387.05
2018-01-21T00:57:44.452Z,99385.16
2018-01-21T01:00:12.833Z,99381.03
2018-01-21T01:02:41.325Z,99387.79
2018-01-21T01:05:09.819Z,99383.52
2018-01-21T01:07:38.273Z,99396.03
2018-01-21T01:10:06.785Z,99399.89
2018-01-21T01:12:35.295Z,99407.92
2018-01-21T01:15:03.718Z,99425.45
2018-01-21T01:17:32.159Z,99427.80
2018-01-21T01:20:00.550Z,99422.92
2018-01-21T01:22:29.009Z,99427.65
2018-01-21T01:24:57.428Z,99426.45
2018-01-21T01:27:25.890Z,99424.96
2018-01-21T01:29:54.316Z,99435.30
2018-01-21T01:32:28.182Z,99447.66
2018-01-21T01:34:56.576Z,99445.76
2018-01-21T01:37:24.967Z,99445.41
2018-01-21T01:39:53.468Z,99449.84
2018-01-21T01:42:21.848Z,99456.94
2018-01-21T01:44:50.269Z,99455.30
2018-01-21T01:47:18.706Z,99444.59
2018-01-21T01:49:47.205Z,99433.51
2018-01-21T01:52:15.644Z,99442.98
2018-01-21T01:54:44.056Z,99440.16
2018-01-21T01:57:12.533Z,99437.17
2018-01-21T01:59:40.957Z,99440.52
2018-01-21T02:02:09.402Z,99440.39
2018-01-21T02:04:37.910Z,99436.48
2018-01-21T02:07:06.297Z,99434.98
2018-01-21T02:09:34.694Z,99442.53
2018-01-21T02:12:03.112Z,99444.84
2018-01-21T02:14:31.524Z,99443.40
2018-01-21T02:16:59.971Z,99446.75
2018-01-21T02:19:28.412Z,99452.95
2018-01-21T02:21:56.814Z,99464.78
2018-01-21T02:24:25.304Z,99461.78
2018-01-21T02:26:53.709Z,99436.25
2018-01-21T02:29:22.153Z,99446.28
2018-01-21T02:31:50.649Z,99431.41
2018-01-21T02:34:19.037Z,99425.84
2018-01-21T02:36:47.476Z,99430.34
2018-01-21T02:39:15.924Z,99440.43
2018-01-21T02:41:44.323Z,99445.84
2018-01-21T02:44:12.749Z,99429.63
2018-01-21T02:46:41.236Z,99440.96
2018-01-21T02:49:09.647Z,99427.70
2018-01-21T02:51:38.087Z,99434.84
2018-01-21T02:54:06.521Z,99433.86
2018-01-21T02:56:37.885Z,99436.89
2018-01-21T02:59:06.312Z,99435.31
2018-01-21T03:01:34.710Z,99431.94
2018-01-21T03:04:03.141Z,99435.59
2018-01-21T03:06:31.577Z,99441.48
2018-01-21T03:09:00.006Z,99440.30
2018-01-21T03:11:28.466Z,99440.27
2018-01-21T03:13:56.942Z,99434.86
2018-01-21T03:16:25.332Z,99421.23
2018-01-21T03:18:53.766Z,99429.56
2018-01-21T03:21:22.245Z,99426.81
2018-01-21T03:23:50.639Z,99426.41
2018-01-21T03:26:19.060Z,99423.86
2018-01-21T03:28:47.444Z,99426.30
2018-01-21T03:31:15.869Z,99420.55
2018-01-21T03:33:44.320Z,99414.44
2018-01-21T03:36:12.761Z,99411.58
2018-01-21T03:38:41.184Z,99413.32
2018-01-21T03:41:09.620Z,99430.99
2018-01-21T03:43:38.157Z,99440.01
2018-01-21T03:46:06.565Z,99450.83
2018-01-21T03:48:34.945Z,99455.36
2018-01-21T03:51:03.381Z,99450.14
2018-01-21T03:53:31.882Z,99446.55
2018-01-21T03:56:00.277Z,99449.05
2018-01-21T03:58:28.709Z,99448.45
2018-01-21T04:00:57.231Z,99444.55
2018-01-21T04:03:25.620Z,99425.42
2018-01-21T04:05:54.189Z,99395.19
2018-01-21T04:08:22.785Z,99368.86
2018-01-21T04:10:51.230Z,99341.23
2018-01-21T04:13:19.661Z,99353.69
2018-01-21T04:15:48.114Z,99378.50
2018-01-21T04:18:16.589Z,99375.92
2018-01-21T04:20:44.954Z,99373.11
2018-01-21T04:23:13.479Z,99369.18
2018-01-21T04:25:41.887Z,99361.16
2018-01-21T04:28:10.329Z,99355.12
2018-01-21T04:30:38.762Z,99370.03
2018-01-21T04:33:07.194Z,99376.92
2018-01-21T04:35:35.617Z,99370.91
2018-01-21T04:38:04.059Z,99354.05
2018-01-21T04:40:32.489Z,99353.91
2018-01-21T04:43:00.972Z,99363.10
2018-01-21T04:45:29.487Z,99364.39
2018-01-21T04:47:57.874Z,99358.78
2018-01-21T04:50:26.273Z,99369.86
2018-01-21T04:52:54.689Z,99366.27
2018-01-21T04:55:23.191Z,99373.30
2018-01-21T04:57:51.729Z,99364.58
2018-01-21T05:00:20.880Z,99362.84
2018-01-21T05:02:49.290Z,99369.01
2018-01-21T05:05:17.818Z,99379.47
2018-01-21T05:07:46.261Z,99374.58
2018-01-21T05:10:14.700Z,99366.77
2018-01-21T05:12:43.127Z,99368.00
2018-01-21T05:15:11.563Z,99358.63
2018-01-21T05:17:39.953Z,99356.70
2018-01-21T05:20:08.397Z,99345.59
2018-01-21T05:22:36.859Z,99356.86
2018-01-21T05:25:05.292Z,99341.17
2018-01-21T05:27:33.698Z,99340.20
2018-01-21T05:30:02.131Z,99339.16
2018-01-21T05:32:30.590Z,99323.47
2018-01-21T05:34:59.080Z,99331.20
2018-01-21T05:37:27.497Z,99323.02
2018-01-21T05:39:56.006Z,99311.95
2018-01-21T05:42:24.477Z,99305.41
2018-01-21T05:44:52.969Z,99303.77
2018-01-21T05:47:21.400Z,99298.95
2018-01-21T05:49:49.873Z,99301.77
2018-01-21T05:52:18.304Z,99294.97
2018-01-21T05:54:46.818Z,99280.58
2018-01-21T05:57:15.212Z,99286.13
2018-01-21T05:59:43.721Z,99288.98
2018-01-21T06:02:12.300Z,99297.34
2018-01-21T06:04:40.749Z,99294.89
2018-01-21T06:07:09.132Z,99312.95
2018-01-21T06:09:37.587Z,99324.88
2018-01-21T06:12:06.020Z,99318.79
2018-01-21T06:14:34.437Z,99332.22
2018-01-21T06:17:02.876Z,99331.67
2018-01-21T06:19:31.349Z,99340.86
2018-01-21T06:21:59.766Z,99354.88
2018-01-21T06:24:28.249Z,99358.74
2018-01-21T06:26:57.624Z,99368.27
2018-01-21T06:29:26.141Z,99372.19
2018-01-21T06:31:54.568Z,99358.00
2018-01-21T06:34:23.012Z,99371.76
2018-01-21T06:36:51.522Z,99380.94
2018-01-21T06:39:19.980Z,99370.52
2018-01-21T06:41:48.477Z,99357.30
2018-01-21T06:44:16.949Z,99374.55
2018-01-21T06:46:45.450Z,99385.00
2018-01-21T06:49:13.850Z,99381.17
2018-01-21T06:51:42.260Z,99382.66
2018-01-21T06:54:10.713Z,99399.66
2018-01-21T06:56:39.168Z,99388.80
2018-01-21T06:59:07.642Z,99397.98
2018-01-21T07:01:36.096Z,99399.18
2018-01-21T07:04:04.524Z,99412.57
2018-01-21T07:06:32.942Z,99413.26
2018-01-21T07:09:01.413Z,99407.75
2018-01-21T07:11:29.858Z,99403.89
2018-01-21T07:13:58.284Z,99404.81
2018-01-21T07:16:26.672Z,99390.61
2018-01-21T07:18:55.112Z,99405.13
2018-01-21T07:21:23.512Z,99406.63
2018-01-21T07:23:51.964Z,99405.57
2018-01-21T07:26:20.524Z,99407.06
2018-01-21T07:28:48.968Z,99410.02
2018-01-21T07:31:17.519Z,99403.95
2018-01-21T07:33:45.916Z,99400.30
2018-01-21T07:36:14.356Z,99406.11
2018-01-21T07:38:42.760Z,99414.89
2018-01-21T07:41:11.147Z,99411.91
2018-01-21T07:43:39.651Z,99410.34
2018-01-21T07:46:08.042Z,99420.88
2018-01-21T07:48:36.509Z,99429.77
2018-01-21T07:51:04.904Z,99431.66
2018-01-21T07:53:33.421Z,99441.73
2018-01-21T07:56:01.867Z,99434.86
2018-01-21T07:58:30.364Z,99427.98
2018-01-21T08:00:58.860Z,99414.31
2018-01-21T08:03:27.333Z,99415.28
2018-01-21T08:05:55.829Z,99419.03
2018-01-21T08:08:24.283Z,99426.97
2018-01-21T08:10:52.755Z,99438.38
2018-01-21T08:13:21.247Z,99442.30
2018-01-21T08:15:49.733Z,99443.52
2018-01-21T08:18:18.226Z,99438.39
2018-01-21T08:20:46.695Z,99439.66
2018-01-21T08:23:15.088Z,99437.43
2018-01-21T08:25:43.538Z,99450.11
2018-01-21T08:28:12.073Z,99426.27
2018-01-21T08:30:40.519Z,99433.97
2018-01-21T08:33:09.010Z,99429.70
2018-01-21T08:35:43.029Z,99433.22
2018-01-21T08:38:16.933Z,99407.37
2018-01-21T08:43:47.425Z,99396.30
2018-01-21T08:46:15.922Z,99395.92
2018-01-21T08:48:44.504Z,99407.81
2018-01-21T08:51:12.986Z,99406.10
2018-01-21T08:53:41.457Z,99403.66
2018-01-21T08:56:09.888Z,99409.95
2018-01-21T08:58:38.335Z,99409.65
2018-01-21T09:01:06.850Z,99405.83
2018-01-21T09:03:35.316Z,99406.23
2018-01-21T09:06:03.744Z,99398.69
2018-01-21T09:08:32.207Z,99391.54
2018-01-21T09:11:00.659Z,99403.84
2018-01-21T09:13:29.056Z,99398.68
2018-01-21T09:15:57.552Z,99393.53
2018-01-21T09:18:25.999Z,99387.79
2018-01-21T09:20:54.453Z,99398.23
2018-01-21T09:23:22.987Z,99396.59
2018-01-21T09:25:51.412Z,99387.17
2018-01-21T09:28:19.841Z,99377.20
2018-01-21T09:30:48.260Z,99376.69
2018-01-21T09:33:16.759Z,99357.09
2018-01-21T09:35:45.205Z,99365.14
2018-01-21T09:38:13.641Z,99365.17
2018-01-21T09:40:42.053Z,99364.72
2018-01-21T09:43:10.534Z,99351.55
2018-01-21T09:45:39.035Z,99349.99
2018-01-21T09:48:07.486Z,99339.78
2018-01-21T09:50:35.880Z,99337.72
2018-01-21T09:53:04.316Z,99331.02
2018-01-21T09:55:32.777Z,99325.82
2018-01-21T09:58:01.176Z,99334.28
2018-01-21T10:00:29.641Z,99329.77
2018-01-21T10:02:58.129Z,99309.60
2018-01-21T10:05:26.577Z,99312.08
2018-01-21T10:07:55.005Z,99316.14
2018-01-21T10:10:23.460Z,99318.20
2018-01-21T10:12:51.950Z,99313.25
2018-01-21T10:15:20.712Z,99310.26
2018-01-21T10:17:49.144Z,99295.73
2018-01-21T10:20:17.548Z,99299.82
2018-01-21T10:22:45.988Z,99302.22
2018-01-21T10:25:14.403Z,99301.61
2018-01-21T10:27:42.832Z,99294.48
2018-01-21T10:30:11.265Z,99283.34
2018-01-21T10:32:39.763Z,99276.74
2018-01-21T10:35:08.213Z,99274.69
2018-01-21T10:37:36.673Z,99269.02
2018-01-21T10:40:05.146Z,99254.87
2018-01-21T10:42:33.565Z,99256.52
2018-01-21T10:45:02.025Z,99262.61
2018-01-21T10:47:30.561Z,99257.64
2018-01-21T10:49:59.020Z,99251.88
2018-01-21T10:52:27.482Z,99248.38
2018-01-21T10:54:55.948Z,99253.51
2018-01-21T10:57:24.388Z,99254.05
2018-01-21T10:59:52.791Z,99243.22
2018-01-21T11:02:21.205Z,99241.66
2018-01-21T11:04:49.709Z,99236.60
2018-01-21T11:07:18.180Z,99213.59
2018-01-21T11:09:46.563Z,99224.63
2018-01-21T11:12:14.984Z,99218.96
2018-01-21T11:14:43.369Z,99218.55
2018-01-21T11:17:11.869Z,99214.45
2018-01-21T11:19:40.317Z,99209.17
2018-01-21T11:22:08.817Z,99208.25
2018-01-21T11:24:37.265Z,99208.66
2018-01-21T11:27:05.657Z,99194.53
2018-01-21T11:29:34.100Z,99198.95
2018-01-21T11:32:02.553Z,99194.83
2018-01-21T11:34:30.949Z,99175.03
2018-01-21T11:36:59.381Z,99180.09
2018-01-21T11:39:27.853Z,99166.08
2018-01-21T11:41:56.281Z,99173.28
2018-01-21T11:44:24.762Z,99159.56
2018-01-21T11:46:53.384Z,99160.38
2018-01-21T11:49:21.873Z,99146.83
2018-01-21T11:51:50.301Z,99141.48
2018-01-21T11:54:18.720Z,99132.08
2018-01-21T11:56:47.224Z,99131.03
2018-01-21T11:59:15.688Z,99123.80
2018-01-21T12:01:44.129Z,99119.95
2018-01-21T12:04:12.618Z,99108.81
2018-01-21T12:06:41.040Z,99102.11
2018-01-21T12:09:09.485Z,99105.52
2018-01-21T12:11:37.943Z,99122.03
2018-01-21T12:14:06.416Z,99120.59
2018-01-21T12:16:34.859Z,99109.36
2018-01-21T12:19:03.267Z,99101.72
2018-01-21T12:21:31.715Z,99093.33
2018-01-21T12:24:00.185Z,99103.86
2018-01-21T12:26:28.701Z,99089.65
2018-01-21T12:28:57.177Z,99090.73
2018-01-21T12:31:25.673Z,99085.36
2018-01-21T12:33:54.110Z,99082.35
2018-01-21T12:36:22.597Z,99094.98
2018-01-21T12:38:51.054Z,99083.66
2018-01-21T12:41:19.509Z,99071.23
2018-01-21T12:43:48.005Z,99081.10
2018-01-21T12:46:16.464Z,99078.58
2018-01-21T12:48:44.873Z,99074.19
2018-01-21T12:51:13.357Z,99050.34
2018-01-21T12:53:41.849Z,99054.69
2018-01-21T12:56:10.362Z,99054.21
2018-01-21T12:58:38.855Z,99047.38
2018-01-21T13:01:07.292Z,99042.52
2018-01-21T13:03:35.716Z,99043.45
2018-01-21T13:06:04.149Z,99036.13
2018-01-21T13:08:32.591Z,99032.72
2018-01-21T13:11:01.002Z,99033.10
2018-01-21T13:13:29.513Z,99020.45
2018-01-21T13:15:57.936Z,99033.91
2018-01-21T13:18:26.420Z,99021.88
2018-01-21T13:20:54.865Z,99029.95
2018-01-21T13:23:23.331Z,99029.75
2018-01-21T13:25:51.804Z,99023.80
2018-01-21T13:28:20.232Z,99022.56
2018-01-21T13:30:48.685Z,99021.84
2018-01-21T13:33:17.136Z,99016.55
2018-01-21T13:35:45.529Z,99007.66
2018-01-21T13:38:14.025Z,99002.41
2018-01-21T13:40:42.460Z,99013.14
2018-01-21T13:43:10.916Z,99010.63
2018-01-21T13:45:39.423Z,99003.91
2018-01-21T13:48:07.894Z,99009.64
2018-01-21T13:50:36.406Z,99009.61
2018-01-21T13:53:04.801Z,99013.27
2018-01-21T13:55:33.248Z,99014.97
2018-01-21T13:58:01.656Z,99015.59
2018-01-21T14:00:30.096Z,99012.16
2018-01-21T14:02:58.506Z,99010.86
2018-01-21T14:05:26.958Z,99004.84
2018-01-21T14:07:55.385Z,98987.89
2018-01-21T14:10:23.846Z,98988.30
2018-01-21T14:12:52.301Z,99008.83
2018-01-21T14:15:20.738Z,99008.71
2018-01-21T14:17:49.181Z,99003.22
2018-01-21T14:20:17.581Z,98989.56
2018-01-21T14:22:45.984Z,98987.08
2018-01-21T14:25:14.412Z,98992.28
2018-01-21T14:27:42.815Z,98995.13
2018-01-21T14:30:11.262Z,98991.19
2018-01-21T14:32:39.725Z,98991.62
2018-01-21T14:35:08.169Z,98989.27
2018-01-21T14:37:36.625Z,98982.56
2018-01-21T14:40:05.041Z,98974.88
2018-01-21T14:42:33.489Z,98966.41
2018-01-21T14:45:02.005Z,98968.36
2018-01-21T14:47:31.414Z,98962.67
2018-01-21T14:49:59.908Z,98961.66
2018-01-21T14:52:28.300Z,98963.29
2018-01-21T14:54:56.728Z,98957.31
2018-01-21T14:57:25.136Z,98952.73
2018-01-21T14:59:53.636Z,98952.86
2018-01-21T15:02:22.079Z,98955.17
2018-01-21T15:04:50.577Z,98951.42
2018-01-21T15:07:19.056Z,98946.47
2018-01-21T15:09:47.548Z,98912.73
2018-01-21T15:12:15.952Z,98922.73
2018-01-21T15:14:44.461Z,98928.00
2018-01-21T15:17:12.853Z,98936.46
2018-01-21T15:19:41.338Z,98938.21
2018-01-21T15:22:09.833Z,98931.30
2018-01-21T15:24:38.329Z,98932.03
2018-01-21T15:27:06.749Z,98930.45
2018-01-21T15:29:35.144Z,98919.22
2018-01-21T15:32:03.620Z,98930.73
2018-01-21T15:34:32.106Z,98892.70
2018-01-21T15:37:00.509Z,98907.69
2018-01-21T15:39:28.973Z,98910.61
2018-01-21T15:41:57.380Z,98916.06
2018-01-21T15:44:25.821Z,98916.71
2018-01-21T15:46:54.409Z,98917.13
2018-01-21T15:49:22.815Z,98915.63
2018-01-21T15:51:51.260Z,98919.94
2018-01-21T15:54:19.714Z,98918.64
2018-01-21T15:56:48.151Z,98924.58
2018-01-21T15:59:16.544Z,98919.25
2018-01-21T16:01:44.981Z,98918.96
2018-01-21T16:04:13.371Z,98913.68
2018-01-21T16:06:41.815Z,98917.91
2018-01-21T16:09:10.310Z,98919.94
2018-01-21T16:11:38.769Z,98914.70
2018-01-21T16:14:07.191Z,98914.33
2018-01-21T16:16:35.682Z,98908.81
2018-01-21T16:19:04.121Z,98904.25
2018-01-21T16:21:32.517Z,98904.66
2018-01-21T16:24:00.950Z,98904.83
2018-01-21T16:26:29.405Z,98892.39
2018-01-21T16:28:57.873Z,98877.23
2018-01-21T16:31:26.310Z,98883.77
2018-01-21T16:33:54.717Z,98894.66
2018-01-21T16:36:33.936Z,98904.70
2018-01-21T16:39:02.455Z,98902.50
2018-01-21T16:41:30.961Z,98892.47
2018-01-21T16:43:59.452Z,98888.37
2018-01-21T16:46:27.910Z,98881.05
2018-01-21T16:48:56.321Z,98872.39
2018-01-21T16:51:24.725Z,98872.25
2018-01-21T16:53:53.192Z,98865.05
2018-01-21T16:56:21.600Z,98864.69
2018-01-21T16:58:50.052Z,98861.47
2018-01-21T17:01:18.465Z,98868.67
2018-01-21T17:03:46.897Z,98865.05
2018-01-21T17:06:15.337Z,98859.97
2018-01-21T17:08:43.777Z,98864.45
2018-01-21T17:11:12.184Z,98854.37
2018-01-21T17:13:40.622Z,98851.65
2018-01-21T17:16:09.121Z,98847.30
2018-01-21T17:18:37.521Z,98852.25
2018-01-21T17:21:05.952Z,98852.05
2018-01-21T17:23:34.485Z,98849.85
2018-01-21T17:26:02.961Z,98846.08
2018-01-21T17:28:31.382Z,98826.62
2018-01-21T17:30:59.881Z,98845.62
2018-01-21T17:33:28.380Z,98827.31
2018-01-21T17:35:56.840Z,98824.63
2018-01-21T17:38:25.331Z,98827.48
2018-01-21T17:40:53.836Z,98819.97
2018-01-21T17:43:22.335Z,98830.03
2018-01-21T17:45:50.777Z,98825.58
2018-01-21T17:48:19.171Z,98814.73
2018-01-21T17:50:47.616Z,98808.23
2018-01-21T17:53:16.117Z,98794.30
2018-01-21T17:55:44.550Z,98804.49
2018-01-21T17:58:13.033Z,98806.16
2018-01-21T18:00:41.566Z,98801.08
2018-01-21T18:03:10.013Z,98786.51
2018-01-21T18:05:38.399Z,98780.86
2018-01-21T18:08:06.857Z,98782.97
2018-01-21T18:10:35.345Z,98774.74
2018-01-21T18:13:03.877Z,98784.12
2018-01-21T18:15:32.328Z,98785.34
2018-01-21T18:18:00.732Z,98769.55
2018-01-21T18:20:29.325Z,98761.86
2018-01-21T18:22:57.877Z,98749.34
2018-01-21T18:25:26.273Z,98756.02
2018-01-21T18:27:54.718Z,98744.06
2018-01-21T18:30:23.115Z,98753.26
2018-01-21T18:32:51.518Z,98747.86
2018-01-21T18:35:19.962Z,98750.37
2018-01-21T18:37:48.441Z,98746.89
2018-01-21T18:40:16.885Z,98741.05
2018-01-21T18:42:45.389Z,98743.85
2018-01-21T18:45:13.820Z,98736.63
2018-01-21T18:47:42.217Z,98738.92
2018-01-21T18:50:10.648Z,98733.32
2018-01-21T18:52:39.085Z,98732.22
2018-01-21T18:55:07.614Z,98740.77
2018-01-21T18:57:36.063Z,98740.59
2018-01-21T19:00:04.512Z,98721.65
2018-01-21T19:02:32.998Z,98742.91
2018-01-21T19:05:01.452Z,98736.38
2018-01-21T19:07:29.907Z,98734.80
2018-01-21T19:09:58.308Z,98737.77
2018-01-21T19:12:26.744Z,98739.66
2018-01-21T19:14:55.137Z,98733.23
2018-01-21T19:17:23.588Z,98726.22
2018-01-21T19:19:51.988Z,98717.57
2018-01-21T19:22:20.436Z,98713.02
2018-01-21T19:24:48.892Z,98716.28
2018-01-21T19:27:17.399Z,98723.23
2018-01-21T19:29:45.905Z,98718.85
2018-01-21T19:32:14.341Z,98716.02
2018-01-21T19:34:42.736Z,98714.75
2018-01-21T19:37:11.261Z,98709.89
2018-01-21T19:39:41.265Z,98702.38
2018-01-21T19:42:11.656Z,98703.03
2018-01-21T19:44:40.108Z,98694.22
2018-01-21T19:47:08.561Z,98681.94
2018-01-21T19:49:37.009Z,98696.73
2018-01-21T19:52:05.501Z,98695.44
2018-01-21T19:54:33.960Z,98693.48
2018-01-21T19:57:02.357Z,98684.69
2018-01-21T19:59:30.797Z,98675.52
2018-01-21T20:01:59.253Z,98689.56
2018-01-21T20:04:27.721Z,98684.36
2018-01-21T20:06:56.278Z,98666.84
2018-01-21T20:09:24.718Z,98668.06
2018-01-21T20:11:53.141Z,98671.91
2018-01-21T20:14:21.572Z,98672.68
2018-01-21T20:16:49.988Z,98674.59
2018-01-21T20:19:18.402Z,98665.14
2018-01-21T20:21:46.829Z,98659.26
2018-01-21T20:24:15.305Z,98663.06
2018-01-21T20:26:43.704Z,98656.38
2018-01-21T20:29:12.127Z,98651.95
2018-01-21T20:31:40.599Z,98650.73
2018-01-21T20:34:09.066Z,98649.52
2018-01-21T20:36:37.493Z,98652.92
2018-01-21T20:39:05.908Z,98645.79
2018-01-21T20:41:34.356Z,98639.09
2018-01-21T20:44:02.800Z,98633.41
2018-01-21T20:46:31.235Z,98627.05
2018-01-21T20:48:59.660Z,98632.44
2018-01-21T20:51:33.532Z,98624.98
2018-01-21T20:54:07.402Z,98606.28
2018-01-21T20:56:35.807Z,98619.30
2018-01-21T20:59:04.263Z,98609.95
2018-01-21T21:01:32.661Z,98620.05
2018-01-21T21:04:01.139Z,98615.62
2018-01-21T21:06:29.686Z,98612.88
2018-01-21T21:08:58.124Z,98590.52
2018-01-21T21:11:26.621Z,98593.67
2018-01-21T21:13:55.079Z,98600.82
2018-01-21T21:16:23.517Z,98600.58
2018-01-21T21:18:51.947Z,98594.67
2018-01-21T21:21:20.381Z,98590.25
2018-01-21T21:23:48.778Z,98587.41
2018-01-21T21:26:17.208Z,98591.68
2018-01-21T21:28:45.736Z,98577.25
2018-01-21T21:31:14.227Z,98574.19
2018-01-21T21:33:42.689Z,98578.13
2018-01-21T21:36:11.169Z,98576.95
2018-01-21T21:38:39.572Z,98577.73
2018-01-21T21:41:08.151Z,98572.27
2018-01-21T21:43:36.546Z,98572.45
2018-01-21T21:46:04.969Z,98567.08
2018-01-21T21:48:33.489Z,98569.37
2018-01-21T21:51:01.881Z,98562.01
2018-01-21T21:53:30.314Z,98563.26
2018-01-21T21:55:58.837Z,98562.01
2018-01-21T21:58:27.232Z,98565.86
2018-01-21T22:00:55.714Z,98561.33
2018-01-21T22:03:24.099Z,98556.89
2018-01-21T22:05:52.605Z,98555.61
2018-01-21T22:08:21.101Z,98553.88
2018-01-21T22:10:49.576Z,98548.44
2018-01-21T22:13:17.996Z,98538.91
2018-01-21T22:15:46.452Z,98544.32
2018-01-21T22:18:14.964Z,98528.70
2018-01-21T22:20:43.544Z,98539.14
2018-01-21T22:23:11.941Z,98529.31
2018-01-21T22:25:40.404Z,98529.80
2018-01-21T22:28:08.913Z,98530.79
2018-01-21T22:30:37.323Z,98529.54
2018-01-21T22:33:05.783Z,98523.23
2018-01-21T22:35:34.249Z,98526.52
2018-01-21T22:38:02.642Z,98517.14
2018-01-21T22:40:31.069Z,98514.33
2018-01-21T22:42:59.505Z,98517.73
2018-01-21T22:45:27.946Z,98517.12
2018-01-21T22:47:56.376Z,98515.41
2018-01-21T22:50:24.912Z,98511.38
2018-01-21T22:52:53.404Z,98513.66
2018-01-21T22:55:21.820Z,98508.94
2018-01-21T22:57:50.224Z,98503.01
2018-01-21T23:00:18.709Z,98513.98
2018-01-21T23:02:47.153Z,98512.14
2018-01-21T23:05:15.584Z,98507.80
2018-01-21T23:07:44.081Z,98517.05
2018-01-21T23:10:12.513Z,98512.09
2018-01-21T23:12:40.997Z,98510.88
2018-01-21T23:15:09.560Z,98512.55
2018-01-21T23:17:37.957Z,98515.61
2018-01-21T23:20:06.349Z,98520.73
2018-01-21T23:22:34.800Z,98519.20
2018-01-21T23:25:03.344Z,98513.69
2018-01-21T23:27:31.853Z,98522.72
2018-01-21T23:30:00.254Z,98522.78
2018-01-21T23:32:28.793Z,98510.50
2018-01-21T23:34:57.263Z,98520.14
2018-01-21T23:37:25.753Z,98535.91
2018-01-21T23:39:54.157Z,98535.14
2018-01-21T23:42:22.643Z,98530.34
2018-01-21T23:44:51.034Z,98531.81
2018-01-21T23:47:19.468Z,98541.83
2018-01-21T23:49:47.896Z,98535.48
2018-01-21T23:52:16.345Z,98539.50
2018-01-21T23:54:44.768Z,98545.05
2018-01-21T23:57:13.171Z,98543.27
2018-01-21T23:59:41.675Z,98542.34
